createdAt,value
2018-12-03T00:00:26.504Z,27.63
2018-12-03T00:02:57.592Z,29.60
2018-12-03T00:05:26.189Z,26.40
2018-12-03T00:07:54.641Z,29.70
2018-12-03T00:10:23.140Z,29.83
2018-12-03T00:12:51.845Z,24.50
2018-12-03T00:15:20.328Z,26.27
2018-12-03T00:17:49.721Z,27.73
2018-12-03T00:20:18.235Z,24.93
2018-12-03T00:22:46.726Z,25.20
2018-12-03T00:25:15.196Z,23.97
2018-12-03T00:27:51.191Z,24.13
2018-12-03T00:30:19.800Z,28.00
2018-12-03T00:32:48.267Z,24.73
2018-12-03T00:35:16.776Z,22.53
2018-12-03T00:37:45.247Z,24.20
2018-12-03T00:40:13.720Z,25.03
2018-12-03T00:42:42.173Z,23.67
2018-12-03T00:45:10.692Z,23.43
2018-12-03T00:47:39.188Z,24.27
2018-12-03T00:50:07.728Z,26.47
2018-12-03T00:52:36.212Z,27.67
2018-12-03T00:55:06.134Z,23.80
2018-12-03T00:57:34.591Z,24.83
2018-12-03T01:00:04.128Z,23.80
2018-12-03T01:02:32.580Z,27.70
2018-12-03T01:05:01.052Z,26.90
2018-12-03T01:07:29.538Z,29.37
2018-12-03T01:09:57.996Z,25.37
2018-12-03T01:12:26.448Z,27.03
2018-12-03T01:14:54.940Z,26.77
2018-12-03T01:17:23.385Z,27.33
2018-12-03T01:19:51.856Z,27.37
2018-12-03T01:22:20.336Z,29.40
2018-12-03T01:24:48.801Z,26.70
2018-12-03T01:27:17.304Z,28.60
2018-12-03T01:29:45.753Z,27.47
2018-12-03T01:32:14.224Z,28.07
2018-12-03T01:34:42.673Z,28.13
2018-12-03T01:37:11.167Z,27.10
2018-12-03T01:39:39.607Z,26.57
2018-12-03T01:42:08.080Z,23.23
2018-12-03T01:44:36.514Z,21.80
2018-12-03T01:47:05.069Z,23.07
2018-12-03T01:49:33.516Z,21.57
2018-12-03T01:52:02.359Z,20.50
2018-12-03T01:54:30.805Z,22.30
2018-12-03T01:56:59.256Z,19.97
2018-12-03T01:59:27.713Z,19.40
2018-12-03T02:01:56.203Z,20.47
2018-12-03T02:04:24.641Z,19.87
2018-12-03T02:06:53.148Z,22.17
2018-12-03T02:09:21.637Z,23.03
2018-12-03T02:11:50.135Z,19.90
2018-12-03T02:14:18.608Z,20.97
2018-12-03T02:16:47.091Z,18.97
2018-12-03T02:19:15.537Z,17.30
2018-12-03T02:21:44.052Z,18.37
2018-12-03T02:24:12.513Z,16.60
2018-12-03T02:26:40.963Z,16.33
2018-12-03T02:29:09.418Z,16.00
2018-12-03T02:31:37.907Z,15.93
2018-12-03T02:34:06.738Z,16.27
2018-12-03T02:36:35.192Z,16.00
2018-12-03T02:39:04.784Z,16.80
2018-12-03T02:41:33.269Z,15.90
2018-12-03T02:44:01.724Z,15.37
2018-12-03T02:46:30.216Z,14.97
2018-12-03T02:48:58.658Z,14.63
2018-12-03T02:51:28.072Z,13.10
2018-12-03T02:53:56.541Z,13.33
2018-12-03T02:56:25.008Z,11.53
2018-12-03T02:58:53.473Z,10.67
2018-12-03T03:01:21.961Z,11.83
2018-12-03T03:03:50.450Z,11.97
2018-12-03T03:06:18.936Z,11.73
2018-12-03T03:08:47.393Z,13.03
2018-12-03T03:11:15.897Z,15.30
2018-12-03T03:13:44.369Z,13.87
2018-12-03T03:16:12.883Z,11.20
2018-12-03T03:18:42.061Z,17.77
2018-12-03T03:21:10.533Z,12.10
2018-12-03T03:23:38.989Z,10.97
2018-12-03T03:26:07.450Z,10.53
2018-12-03T03:28:35.936Z,12.70
2018-12-03T03:31:04.445Z,15.10
2018-12-03T03:33:32.937Z,18.70
2018-12-03T03:36:01.408Z,20.23
2018-12-03T03:38:29.919Z,25.00
2018-12-03T03:40:58.365Z,24.37
2018-12-03T03:43:26.835Z,27.57
2018-12-03T03:45:55.283Z,25.33
2018-12-03T03:48:23.751Z,30.23
2018-12-03T03:50:52.204Z,28.17
2018-12-03T03:53:20.715Z,33.27
2018-12-03T03:55:49.189Z,32.70
2018-12-03T03:58:17.636Z,26.77
2018-12-03T04:00:46.103Z,31.83
2018-12-03T04:03:14.579Z,29.80
2018-12-03T04:05:43.056Z,27.33
2018-12-03T04:08:11.516Z,28.17
2018-12-03T04:10:39.967Z,30.77
2018-12-03T04:13:08.468Z,27.17
2018-12-03T04:15:36.936Z,21.27
2018-12-03T04:18:05.937Z,23.83
2018-12-03T04:20:34.400Z,25.97
2018-12-03T04:23:02.869Z,24.60
2018-12-03T04:25:31.345Z,20.97
2018-12-03T04:28:00.165Z,19.90
2018-12-03T04:30:28.624Z,22.03
2018-12-03T04:32:57.120Z,16.07
2018-12-03T04:35:26.871Z,11.90
2018-12-03T04:37:55.724Z,13.60
2018-12-03T04:40:24.168Z,11.43
2018-12-03T04:42:52.641Z,11.70
2018-12-03T04:45:21.109Z,9.00
2018-12-03T04:47:50.597Z,10.43
2018-12-03T04:50:20.000Z,13.43
2018-12-03T04:52:48.504Z,11.33
2018-12-03T04:55:20.586Z,8.53
2018-12-03T04:57:49.195Z,11.07
2018-12-03T05:00:18.619Z,9.70
2018-12-03T05:02:50.307Z,13.97
2018-12-03T05:05:18.827Z,10.57
2018-12-03T05:07:47.280Z,9.83
2018-12-03T05:10:16.701Z,9.43
2018-12-03T05:12:46.280Z,12.30
2018-12-03T05:15:14.908Z,12.80
2018-12-03T05:17:43.721Z,8.30
2018-12-03T05:20:14.183Z,9.53
2018-12-03T05:22:44.036Z,8.40
2018-12-03T05:25:11.356Z,12.87
2018-12-03T05:27:39.852Z,7.80
2018-12-03T05:30:10.816Z,11.43
2018-12-03T05:32:40.142Z,9.47
2018-12-03T05:35:10.791Z,9.37
2018-12-03T05:37:39.325Z,13.30
2018-12-03T05:40:14.541Z,12.83
2018-12-03T05:42:43.005Z,10.07
2018-12-03T05:45:11.479Z,14.50
2018-12-03T05:47:39.997Z,14.67
2018-12-03T05:50:13.801Z,14.97
2018-12-03T05:52:43.011Z,13.67
2018-12-03T05:55:12.535Z,17.70
2018-12-03T05:57:41.459Z,17.07
2018-12-03T06:00:19.984Z,20.07
2018-12-03T06:02:48.512Z,24.80
2018-12-03T06:05:17.392Z,20.07
2018-12-03T06:07:46.220Z,14.43
2018-12-03T06:10:19.936Z,17.00
2018-12-03T06:12:48.576Z,13.57
2018-12-03T06:15:17.983Z,15.50
2018-12-03T06:17:47.224Z,18.10
2018-12-03T06:20:16.705Z,17.07
2018-12-03T06:22:45.439Z,13.93
2018-12-03T06:25:16.118Z,14.20
2018-12-03T06:27:44.576Z,17.80
2018-12-03T06:30:16.908Z,11.10
2018-12-03T06:32:45.476Z,12.63
2018-12-03T06:35:15.072Z,10.10
2018-12-03T06:37:43.516Z,12.00
2018-12-03T06:40:16.848Z,12.33
2018-12-03T06:42:45.335Z,11.13
2018-12-03T06:45:15.214Z,11.67
2018-12-03T06:47:51.933Z,13.87
2018-12-03T06:50:20.732Z,10.50
2018-12-03T06:52:49.201Z,16.53
2018-12-03T06:55:17.703Z,17.17
2018-12-03T06:57:46.152Z,13.50
2018-12-03T07:00:15.864Z,14.17
2018-12-03T07:02:44.516Z,15.77
2018-12-03T07:05:13.083Z,13.47
2018-12-03T07:07:42.297Z,19.47
2018-12-03T07:10:14.098Z,15.97
2018-12-03T07:12:42.850Z,17.60
2018-12-03T07:15:12.933Z,17.83
2018-12-03T07:17:41.443Z,24.70
2018-12-03T07:20:11.916Z,17.83
2018-12-03T07:22:40.796Z,17.63
2018-12-03T07:25:10.664Z,21.63
2018-12-03T07:27:39.285Z,21.23
2018-12-03T07:30:23.384Z,24.00
2018-12-03T07:32:52.382Z,23.97
2018-12-03T07:35:21.861Z,21.80
2018-12-03T07:37:52.533Z,21.83
2018-12-03T07:40:21.008Z,17.83
2018-12-03T07:42:49.493Z,20.00
2018-12-03T07:45:19.846Z,14.80
2018-12-03T07:47:48.401Z,20.03
2018-12-03T07:50:17.843Z,16.63
2018-12-03T07:52:46.329Z,16.97
2018-12-03T07:55:15.936Z,18.57
2018-12-03T07:57:50.200Z,15.67
2018-12-03T08:00:22.337Z,19.53
2018-12-03T08:02:50.802Z,18.17
2018-12-03T08:05:19.284Z,20.50
2018-12-03T08:07:47.756Z,21.13
2018-12-03T08:10:17.106Z,18.57
2018-12-03T08:12:46.365Z,21.13
2018-12-03T08:15:16.284Z,22.63
2018-12-03T08:17:46.374Z,15.70
2018-12-03T08:20:18.528Z,24.80
2018-12-03T08:22:48.782Z,24.17
2018-12-03T08:25:17.510Z,20.37
2018-12-03T08:27:46.000Z,24.93
2018-12-03T08:30:14.474Z,24.07
2018-12-03T08:32:42.940Z,19.70
2018-12-03T08:35:13.828Z,16.90
2018-12-03T08:37:42.451Z,23.40
2018-12-03T08:40:15.251Z,26.83
2018-12-03T08:42:46.247Z,25.87
2018-12-03T08:45:14.924Z,22.67
2018-12-03T08:47:43.677Z,25.20
2018-12-03T08:50:17.704Z,23.03
2018-12-03T08:52:46.236Z,22.87
2018-12-03T08:55:14.739Z,23.07
2018-12-03T08:57:43.193Z,21.40
2018-12-03T09:00:16.488Z,21.67
2018-12-03T09:02:50.516Z,19.83
2018-12-03T09:05:18.989Z,18.47
2018-12-03T09:07:47.444Z,25.70
2018-12-03T09:10:16.746Z,20.50
2018-12-03T09:12:45.196Z,19.17
2018-12-03T09:15:13.702Z,25.07
2018-12-03T09:17:42.181Z,22.50
2018-12-03T09:20:10.664Z,19.27
2018-12-03T09:22:39.165Z,19.53
2018-12-03T09:25:15.439Z,22.70
2018-12-03T09:27:43.892Z,19.30
2018-12-03T09:30:12.353Z,22.30
2018-12-03T09:32:40.824Z,21.77
2018-12-03T09:35:09.897Z,19.20
2018-12-03T09:37:38.428Z,24.37
2018-12-03T09:40:12.459Z,18.17
2018-12-03T09:42:40.953Z,21.97
2018-12-03T09:45:13.777Z,18.07
2018-12-03T09:47:42.312Z,24.47
2018-12-03T09:50:21.152Z,24.47
2018-12-03T09:52:49.764Z,22.10
2018-12-03T09:55:19.583Z,22.77
2018-12-03T09:57:59.147Z,26.83
2018-12-03T10:00:27.952Z,23.57
2018-12-03T10:02:57.471Z,24.00
2018-12-03T10:05:28.183Z,20.80
2018-12-03T10:07:56.636Z,18.40
2018-12-03T10:10:25.085Z,20.97
2018-12-03T10:12:53.532Z,22.23
2018-12-03T10:15:28.744Z,26.93
2018-12-03T10:17:57.855Z,23.30
2018-12-03T10:20:26.372Z,22.90
2018-12-03T10:22:54.841Z,25.90
2018-12-03T10:25:23.255Z,23.50
2018-12-03T10:27:53.761Z,21.80
2018-12-03T10:30:22.187Z,19.80
2018-12-03T10:32:52.115Z,23.30
2018-12-03T10:35:20.600Z,19.23
2018-12-03T10:37:49.518Z,27.70
2018-12-03T10:40:19.340Z,26.73
2018-12-03T10:42:48.528Z,29.10
2018-12-03T10:45:25.997Z,25.63
2018-12-03T10:47:48.988Z,22.40
2018-12-03T10:50:22.291Z,24.37
2018-12-03T10:52:48.161Z,23.83
2018-12-03T10:55:16.610Z,23.67
2018-12-03T10:57:45.624Z,24.80
2018-12-03T11:00:21.311Z,25.80
2018-12-03T11:02:56.208Z,19.67
2018-12-03T11:05:31.389Z,23.10
2018-12-03T11:08:00.191Z,20.87
2018-12-03T11:10:40.281Z,24.67
2018-12-03T11:13:08.751Z,28.17
2018-12-03T11:15:37.168Z,18.33
2018-12-03T11:18:07.165Z,18.33
2018-12-03T11:20:35.623Z,20.70
2018-12-03T11:23:04.112Z,26.43
2018-12-03T11:25:35.223Z,20.93
2018-12-03T11:28:06.097Z,21.63
2018-12-03T11:30:34.561Z,18.13
2018-12-03T11:33:03.023Z,21.23
2018-12-03T11:35:32.376Z,17.90
2018-12-03T11:38:08.253Z,26.13
2018-12-03T11:40:46.796Z,23.30
2018-12-03T11:43:15.360Z,25.10
2018-12-03T11:45:43.776Z,22.63
2018-12-03T11:48:12.572Z,25.30
2018-12-03T11:50:41.360Z,23.40
2018-12-03T11:53:09.813Z,22.23
2018-12-03T11:55:38.228Z,22.20
2018-12-03T11:58:06.792Z,21.87
2018-12-03T12:00:35.217Z,27.33
2018-12-03T12:03:03.706Z,21.00
2018-12-03T12:05:32.136Z,23.73
2018-12-03T12:08:00.589Z,18.80
2018-12-03T12:10:29.088Z,19.30
2018-12-03T12:12:57.556Z,22.27
2018-12-03T12:15:26.001Z,25.57
2018-12-03T12:17:54.471Z,22.27
2018-12-03T12:20:22.970Z,17.00
2018-12-03T12:22:51.421Z,16.33
2018-12-03T12:25:19.889Z,21.33
2018-12-03T12:27:52.325Z,24.23
2018-12-03T12:30:21.117Z,17.90
2018-12-03T12:32:49.621Z,20.07
2018-12-03T12:35:18.037Z,25.20
2018-12-03T12:37:46.491Z,20.07
2018-12-03T12:40:14.938Z,20.77
2018-12-03T12:42:43.976Z,22.77
2018-12-03T12:45:16.351Z,18.37
2018-12-03T12:47:44.979Z,23.10
2018-12-03T12:50:16.008Z,18.00
2018-12-03T12:52:44.901Z,20.30
2018-12-03T12:55:13.418Z,26.33
2018-12-03T12:57:41.868Z,22.20
2018-12-03T13:00:13.311Z,21.37
2018-12-03T13:02:41.938Z,24.53
2018-12-03T13:05:10.477Z,23.90
2018-12-03T13:07:38.948Z,27.87
2018-12-03T13:10:11.580Z,22.10
2018-12-03T13:12:40.398Z,23.27
2018-12-03T13:15:10.996Z,20.97
2018-12-03T13:17:40.980Z,21.83
2018-12-03T13:20:12.921Z,22.17
2018-12-03T13:22:41.455Z,30.63
2018-12-03T13:25:12.616Z,25.17
2018-12-03T13:27:41.083Z,21.50
2018-12-03T13:30:12.633Z,26.50
2018-12-03T13:32:41.152Z,54.63
2018-12-03T13:35:11.396Z,53.53
2018-12-03T13:37:39.950Z,41.10
2018-12-03T13:40:15.000Z,55.50
2018-12-03T13:42:44.240Z,30.43
2018-12-03T13:45:17.326Z,31.33
2018-12-03T13:47:46.189Z,20.67
2018-12-03T13:50:15.916Z,27.80
2018-12-03T13:52:44.848Z,22.47
2018-12-03T13:55:14.841Z,29.60
2018-12-03T13:58:19.783Z,20.77
2018-12-03T14:00:48.228Z,25.37
2018-12-03T14:03:16.992Z,18.00
2018-12-03T14:05:46.464Z,20.67
2018-12-03T14:08:14.906Z,19.80
2018-12-03T14:10:43.346Z,20.30
2018-12-03T14:13:11.792Z,21.00
2018-12-03T14:15:40.796Z,18.83
2018-12-03T14:18:09.286Z,19.37
2018-12-03T14:20:37.739Z,25.33
2018-12-03T14:23:06.236Z,27.37
2018-12-03T14:25:36.119Z,20.23
2018-12-03T14:28:06.087Z,16.77
2018-12-03T14:30:35.352Z,14.37
2018-12-03T14:33:05.042Z,17.17
2018-12-03T14:35:33.608Z,15.33
2018-12-03T14:38:02.757Z,16.73
2018-12-03T14:40:31.922Z,16.13
2018-12-03T14:43:00.344Z,16.57
2018-12-03T14:45:29.037Z,15.93
2018-12-03T14:47:58.020Z,13.33
2018-12-03T14:50:26.589Z,21.67
2018-12-03T14:52:55.025Z,25.90
2018-12-03T14:55:23.468Z,10.83
2018-12-03T14:57:51.963Z,16.03
2018-12-03T15:00:20.408Z,14.77
2018-12-03T15:02:48.853Z,18.07
2018-12-03T15:05:17.327Z,16.33
2018-12-03T15:07:45.807Z,13.07
2018-12-03T15:10:14.389Z,10.97
2018-12-03T15:12:42.816Z,19.07
2018-12-03T15:15:11.330Z,15.72
2018-12-03T15:17:39.976Z,14.07
2018-12-03T15:20:08.878Z,17.73
2018-12-03T15:22:37.365Z,16.73
2018-12-03T15:25:07.744Z,14.23
2018-12-03T15:27:36.188Z,17.83
2018-12-03T15:30:05.429Z,16.80
2018-12-03T15:32:34.614Z,13.20
2018-12-03T15:35:03.077Z,18.07
2018-12-03T15:37:31.521Z,9.73
2018-12-03T15:39:59.990Z,12.93
2018-12-03T15:42:28.665Z,18.57
2018-12-03T15:44:57.252Z,18.67
2018-12-03T15:47:26.296Z,14.40
2018-12-03T15:49:54.736Z,17.33
2018-12-03T15:52:23.392Z,17.07
2018-12-03T15:54:54.189Z,14.30
2018-12-03T15:57:22.988Z,18.80
2018-12-03T15:59:52.155Z,19.67
2018-12-03T16:02:20.800Z,17.87
2018-12-03T16:04:50.003Z,15.13
2018-12-03T16:07:18.857Z,20.60
2018-12-03T16:09:47.841Z,25.90
2018-12-03T16:12:17.332Z,23.43
2018-12-03T16:14:46.512Z,29.60
2018-12-03T16:17:20.185Z,27.63
2018-12-03T16:19:46.751Z,21.20
2018-12-03T16:22:15.782Z,32.37
2018-12-03T16:24:44.232Z,39.63
2018-12-03T16:27:13.166Z,34.97
2018-12-03T16:29:41.696Z,22.97
2018-12-03T16:32:10.128Z,17.70
2018-12-03T16:34:38.578Z,16.93
2018-12-03T16:37:07.326Z,30.37
2018-12-03T16:39:36.024Z,47.30
2018-12-03T16:42:04.444Z,58.73
2018-12-03T16:44:32.916Z,40.50
2018-12-03T16:47:02.230Z,18.23
2018-12-03T16:49:31.080Z,24.47
2018-12-03T16:51:59.496Z,14.50
2018-12-03T16:54:28.829Z,15.07
2018-12-03T16:56:57.573Z,16.50
2018-12-03T16:59:26.000Z,13.30
2018-12-03T17:01:54.526Z,12.43
2018-12-03T17:04:23.010Z,15.70
2018-12-03T17:06:51.458Z,22.37
2018-12-03T17:09:20.096Z,14.83
2018-12-03T17:11:48.540Z,13.00
2018-12-03T17:14:20.026Z,14.50
2018-12-03T17:16:48.488Z,14.33
2018-12-03T17:19:16.955Z,16.43
2018-12-03T17:21:47.464Z,19.07
2018-12-03T17:24:16.024Z,14.57
2018-12-03T17:26:45.501Z,17.00
2018-12-03T17:29:13.936Z,12.37
2018-12-03T17:31:43.484Z,15.93
2018-12-03T17:34:11.914Z,15.43
2018-12-03T17:36:40.356Z,13.77
2018-12-03T17:39:09.096Z,14.40
2018-12-03T17:41:37.613Z,13.80
2018-12-03T17:44:06.371Z,11.93
2018-12-03T17:46:34.896Z,14.87
2018-12-03T17:49:03.852Z,13.07
2018-12-03T17:51:32.288Z,21.37
2018-12-03T17:54:01.355Z,12.17
2018-12-03T17:56:29.796Z,14.63
2018-12-03T17:58:58.224Z,12.73
2018-12-03T18:01:26.697Z,15.20
2018-12-03T18:03:55.116Z,14.57
2018-12-03T18:06:24.280Z,14.93
2018-12-03T18:08:52.707Z,15.47
2018-12-03T18:11:21.224Z,16.67
2018-12-03T18:13:49.659Z,21.53
2018-12-03T18:16:18.176Z,24.03
2018-12-03T18:18:47.415Z,17.80
2018-12-03T18:21:16.717Z,17.77
2018-12-03T18:23:45.959Z,18.37
2018-12-03T18:26:15.734Z,20.87
2018-12-03T18:28:45.180Z,23.43
2018-12-03T18:31:13.640Z,20.97
2018-12-03T18:33:42.060Z,24.83
2018-12-03T18:36:10.505Z,22.40
2018-12-03T18:38:39.608Z,17.53
2018-12-03T18:41:08.157Z,22.87
2018-12-03T18:43:36.584Z,17.00
2018-12-03T18:46:05.097Z,19.97
2018-12-03T18:48:33.525Z,25.23
2018-12-03T18:51:01.977Z,28.33
2018-12-03T18:53:30.819Z,24.37
2018-12-03T18:55:59.568Z,26.63
2018-12-03T18:58:27.993Z,27.73
2018-12-03T19:00:57.752Z,26.27
2018-12-03T19:03:26.676Z,22.40
2018-12-03T19:05:55.316Z,19.67
2018-12-03T19:08:24.279Z,18.73
2018-12-03T19:10:53.808Z,15.33
2018-12-03T19:13:22.248Z,24.17
2018-12-03T19:15:51.009Z,19.97
2018-12-03T19:18:19.440Z,22.17
2018-12-03T19:20:47.862Z,22.17
2018-12-03T19:23:16.305Z,21.93
2018-12-03T19:25:44.725Z,20.60
2018-12-03T19:28:13.172Z,19.27
2018-12-03T19:30:41.606Z,23.47
2018-12-03T19:33:10.112Z,19.00
2018-12-03T19:35:38.584Z,21.20
2018-12-03T19:38:07.260Z,22.47
2018-12-03T19:40:35.682Z,18.60
2018-12-03T19:43:04.132Z,19.60
2018-12-03T19:45:32.552Z,17.63
2018-12-03T19:48:01.011Z,18.80
2018-12-03T19:50:29.448Z,20.40
2018-12-03T19:52:57.959Z,24.63
2018-12-03T19:55:27.237Z,25.17
2018-12-03T19:57:56.177Z,22.00
2018-12-03T20:00:24.615Z,21.70
2018-12-03T20:02:53.716Z,26.67
2018-12-03T20:05:23.021Z,29.97
2018-12-03T20:07:52.300Z,29.93
2018-12-03T20:10:20.736Z,26.67
2018-12-03T20:12:49.192Z,23.70
2018-12-03T20:15:17.612Z,32.93
2018-12-03T20:17:46.052Z,27.10
2018-12-03T20:20:14.476Z,21.73
2018-12-03T20:22:42.977Z,26.13
2018-12-03T20:25:11.459Z,29.23
2018-12-03T20:27:39.902Z,30.00
2018-12-03T20:30:11.597Z,26.63
2018-12-03T20:32:40.275Z,29.00
2018-12-03T20:35:08.859Z,24.27
2018-12-03T20:37:38.134Z,26.13
2018-12-03T20:40:09.820Z,23.47
2018-12-03T20:42:38.272Z,27.47
2018-12-03T20:45:11.122Z,26.73
2018-12-03T20:47:39.699Z,27.53
2018-12-03T20:50:11.417Z,24.07
2018-12-03T20:52:39.864Z,24.23
2018-12-03T20:55:10.927Z,24.13
2018-12-03T20:57:39.792Z,22.23
2018-12-03T21:00:11.788Z,20.40
2018-12-03T21:02:40.316Z,24.10
2018-12-03T21:05:08.740Z,24.37
2018-12-03T21:07:37.280Z,19.93
2018-12-03T21:10:06.940Z,25.57
2018-12-03T21:12:35.393Z,23.87
2018-12-03T21:15:04.358Z,20.17
2018-12-03T21:17:32.812Z,23.40
2018-12-03T21:20:01.488Z,24.63
2018-12-03T21:22:29.922Z,26.43
2018-12-03T21:24:58.348Z,22.17
2018-12-03T21:27:26.787Z,23.67
2018-12-03T21:29:55.220Z,24.50
2018-12-03T21:32:23.662Z,23.40
2018-12-03T21:34:52.095Z,25.20
2018-12-03T21:37:20.537Z,24.43
2018-12-03T21:39:48.955Z,25.70
2018-12-03T21:42:17.411Z,21.70
2018-12-03T21:44:45.856Z,24.97
2018-12-03T21:47:14.316Z,22.10
2018-12-03T21:49:43.360Z,27.33
2018-12-03T21:52:11.780Z,22.73
2018-12-03T21:54:40.644Z,25.17
2018-12-03T21:57:10.871Z,21.33
2018-12-03T21:59:40.028Z,23.23
2018-12-03T22:02:08.932Z,27.67
2018-12-03T22:04:38.204Z,31.67
2018-12-03T22:07:06.623Z,23.63
2018-12-03T22:09:35.051Z,13.63
2018-12-03T22:12:03.551Z,10.47
2018-12-03T22:14:32.616Z,11.10
2018-12-03T22:17:01.040Z,6.63
2018-12-03T22:19:29.609Z,5.87
2018-12-03T22:21:58.092Z,10.60
2018-12-03T22:24:26.532Z,10.63
2018-12-03T22:26:56.016Z,9.37
2018-12-03T22:29:25.384Z,9.17
2018-12-03T22:31:53.796Z,6.33
2018-12-03T22:34:23.063Z,5.70
2018-12-03T22:36:51.727Z,6.93
2018-12-03T22:39:21.055Z,6.27
2018-12-03T22:41:49.751Z,10.93
2018-12-03T22:44:18.172Z,8.70
2018-12-03T22:46:46.581Z,11.97
2018-12-03T22:49:15.027Z,15.40
2018-12-03T22:51:44.772Z,9.27
2018-12-03T22:54:13.185Z,11.63
2018-12-03T22:56:41.620Z,10.13
2018-12-03T22:59:10.123Z,8.53
2018-12-03T23:01:39.633Z,7.60
2018-12-03T23:04:08.041Z,9.83
2018-12-03T23:06:36.716Z,6.23
2018-12-03T23:09:06.968Z,5.70
2018-12-03T23:11:35.401Z,9.53
2018-12-03T23:14:03.880Z,9.10
2018-12-03T23:16:32.304Z,5.30
2018-12-03T23:19:00.718Z,7.90
2018-12-03T23:21:29.148Z,8.23
2018-12-03T23:23:57.564Z,6.73
2018-12-03T23:26:25.999Z,7.67
2018-12-03T23:28:54.416Z,8.47
2018-12-03T23:31:22.848Z,7.47
2018-12-03T23:33:51.263Z,5.50
2018-12-03T23:36:19.692Z,6.17
2018-12-03T23:38:48.106Z,10.37
2018-12-03T23:41:16.541Z,8.97
2018-12-03T23:43:44.956Z,6.80
2018-12-03T23:46:13.385Z,9.03
2018-12-03T23:48:41.792Z,5.70
2018-12-03T23:51:10.227Z,8.53
2018-12-03T23:53:39.295Z,13.10
2018-12-03T23:56:08.799Z,11.83
2018-12-03T23:58:37.208Z,8.10
